createdAt,value
2023-04-08T00:03:03.075Z,1006.19
2023-04-08T00:08:47.822Z,1006.22
2023-04-08T00:14:32.734Z,1006.22
2023-04-08T00:20:16.614Z,1006.31
2023-04-08T00:26:00.717Z,1006.29
2023-04-08T00:31:44.858Z,1006.22
2023-04-08T00:37:28.923Z,1006.21
2023-04-08T00:43:13.754Z,1006.21
2023-04-08T00:48:57.783Z,1006.25
2023-04-08T00:54:42.817Z,1006.33
2023-04-08T01:00:27.252Z,1006.37
2023-04-08T01:06:14.390Z,1006.34
2023-04-08T01:12:00.541Z,1006.43
2023-04-08T01:17:45.428Z,1006.43
2023-04-08T01:23:33.996Z,1006.42
2023-04-08T01:29:18.342Z,1006.42
2023-04-08T01:35:03.560Z,1006.38
2023-04-08T01:40:48.219Z,1006.42
2023-04-08T01:46:33.155Z,1006.47
2023-04-08T01:52:19.279Z,1006.47
2023-04-08T01:58:03.995Z,1006.46
2023-04-08T02:03:48.714Z,1006.41
2023-04-08T02:09:33.093Z,1006.43
2023-04-08T02:15:17.393Z,1006.43
2023-04-08T02:21:05.193Z,1006.48
2023-04-08T02:26:50.336Z,1006.44
2023-04-08T02:32:35.078Z,1006.47
2023-04-08T02:38:19.437Z,1006.52
2023-04-08T02:44:03.552Z,1006.56
2023-04-08T02:49:47.479Z,1006.58
2023-04-08T02:55:31.656Z,1006.61
2023-04-08T03:01:15.794Z,1006.6
2023-04-08T03:06:59.852Z,1006.6
2023-04-08T03:12:44.844Z,1006.6
2023-04-08T03:18:28.724Z,1006.6
2023-04-08T03:24:12.704Z,1006.63
2023-04-08T03:29:57.058Z,1006.63
2023-04-08T03:35:41.975Z,1006.64
2023-04-08T03:41:26.158Z,1006.71
2023-04-08T03:47:10.352Z,1006.71
2023-04-08T03:52:54.621Z,1006.71
2023-04-08T03:58:38.505Z,1006.74
2023-04-08T04:04:23.274Z,1006.76
2023-04-08T04:10:08.674Z,1006.77
2023-04-08T04:15:52.767Z,1006.73
2023-04-08T04:21:36.890Z,1006.76
2023-04-08T04:27:21.002Z,1006.8
2023-04-08T04:33:05.174Z,1006.85
2023-04-08T04:38:51.996Z,1006.92
2023-04-08T04:44:36.668Z,1006.98
2023-04-08T04:50:20.786Z,1007.07
2023-04-08T04:56:04.753Z,1007.09
2023-04-08T05:01:48.978Z,1007.13
2023-04-08T05:07:36.465Z,1007.13
2023-04-08T05:13:20.420Z,1007.16
2023-04-08T05:19:04.407Z,1007.18
2023-04-08T05:24:48.291Z,1007.18
2023-04-08T05:30:32.329Z,1007.19
2023-04-08T05:36:16.252Z,1007.16
2023-04-08T05:41:59.973Z,1007.23
2023-04-08T05:47:44.149Z,1007.33
2023-04-08T05:53:28.269Z,1007.39
2023-04-08T05:59:12.226Z,1007.48
2023-04-08T06:04:56.681Z,1007.5
2023-04-08T06:10:41.135Z,1007.52
2023-04-08T06:16:25.128Z,1007.52
2023-04-08T06:22:09.914Z,1007.61
2023-04-08T06:27:53.828Z,1007.66
2023-04-08T06:33:37.966Z,1007.75
2023-04-08T06:39:22.153Z,1007.82
2023-04-08T06:45:06.959Z,1007.9
2023-04-08T06:50:50.817Z,1007.89
2023-04-08T06:56:34.834Z,1007.93
2023-04-08T07:02:19.426Z,1008
2023-04-08T07:08:03.579Z,1008.06
2023-04-08T07:13:48.233Z,1008.11
2023-04-08T07:19:32.401Z,1008.12
2023-04-08T07:25:16.457Z,1008.18
2023-04-08T07:31:05.475Z,1008.2
2023-04-08T07:36:49.610Z,1008.26
2023-04-08T07:42:33.788Z,1008.25
2023-04-08T07:48:17.767Z,1008.32
2023-04-08T07:54:01.707Z,1008.37
2023-04-08T07:59:45.738Z,1008.46
2023-04-08T08:05:29.902Z,1008.52
2023-04-08T08:11:13.983Z,1008.59
2023-04-08T08:16:58.061Z,1008.64
2023-04-08T08:22:56.570Z,1008.71
2023-04-08T08:28:40.415Z,1008.75
2023-04-08T08:34:24.490Z,1008.77
2023-04-08T08:40:09.571Z,1008.83
2023-04-08T08:45:53.725Z,1008.85
2023-04-08T08:51:38.953Z,1008.87
2023-04-08T08:57:22.875Z,1008.89
2023-04-08T09:03:21.196Z,1008.83
2023-04-08T09:09:06.453Z,1008.83
2023-04-08T09:14:50.351Z,1008.9
2023-04-08T09:20:34.426Z,1008.94
2023-04-08T09:26:19.197Z,1008.88
2023-04-08T09:32:04.476Z,1008.9
2023-04-08T09:37:49.195Z,1008.91
2023-04-08T09:43:33.954Z,1008.88
2023-04-08T09:49:19.802Z,1008.9
2023-04-08T09:55:05.568Z,1008.92
2023-04-08T10:00:51.104Z,1008.88
2023-04-08T10:06:35.817Z,1008.97
2023-04-08T10:12:20.087Z,1008.96
2023-04-08T10:18:31.239Z,1008.95
2023-04-08T10:24:15.366Z,1008.99
2023-04-08T10:30:00.294Z,1009.01
2023-04-08T10:35:45.424Z,1008.96
2023-04-08T10:41:29.646Z,1008.91
2023-04-08T10:47:13.682Z,1008.97
2023-04-08T10:52:57.951Z,1009
2023-04-08T10:58:47.341Z,1008.89
2023-04-08T11:04:31.625Z,1008.92
2023-04-08T11:10:16.598Z,1008.87
2023-04-08T11:16:01.461Z,1008.85
2023-04-08T11:21:46.632Z,1008.8
2023-04-08T11:27:30.824Z,1008.86
2023-04-08T11:33:15.088Z,1008.85
2023-04-08T11:38:59.273Z,1008.86
2023-04-08T11:44:43.391Z,1008.82
2023-04-08T11:50:27.760Z,1008.85
2023-04-08T11:56:21.777Z,1008.88
2023-04-08T12:02:07.188Z,1008.83
2023-04-08T12:07:52.215Z,1008.83
2023-04-08T12:13:36.083Z,1008.78
2023-04-08T12:19:19.802Z,1008.73
2023-04-08T12:25:04.038Z,1008.67
2023-04-08T12:30:48.017Z,1008.65
2023-04-08T12:36:32.073Z,1008.65
2023-04-08T12:42:16.196Z,1008.67
2023-04-08T12:48:00.635Z,1008.68
2023-04-08T12:53:44.727Z,1008.64
2023-04-08T12:59:28.792Z,1008.66
2023-04-08T13:05:13.815Z,1008.61
2023-04-08T13:10:58.996Z,1008.63
2023-04-08T13:16:43.198Z,1008.54
2023-04-08T13:22:27.349Z,1008.6
2023-04-08T13:28:11.319Z,1008.59
2023-04-08T13:33:59.089Z,1008.52
2023-04-08T13:39:43.086Z,1008.48
2023-04-08T13:45:27.234Z,1008.46
2023-04-08T13:51:11.515Z,1008.48
2023-04-08T13:56:55.805Z,1008.49
2023-04-08T14:02:40.083Z,1008.51
2023-04-08T14:08:24.531Z,1008.43
2023-04-08T14:14:08.977Z,1008.33
2023-04-08T14:19:54.196Z,1008.38
2023-04-08T14:25:38.018Z,1008.31
2023-04-08T14:31:22.412Z,1008.29
2023-04-08T14:37:06.701Z,1008.24
2023-04-08T14:42:50.866Z,1008.16
2023-04-08T14:48:34.987Z,1008.12
2023-04-08T14:54:19.223Z,1008.15
2023-04-08T15:00:03.737Z,1008.19
2023-04-08T15:05:48.275Z,1008.15
2023-04-08T15:11:32.515Z,1008.14
2023-04-08T15:17:16.718Z,1008.13
2023-04-08T15:23:00.733Z,1008.15
2023-04-08T15:28:44.952Z,1008.15
2023-04-08T15:34:29.065Z,1008.14
2023-04-08T15:40:13.718Z,1008.08
2023-04-08T15:45:57.592Z,1008.11
2023-04-08T15:51:41.386Z,1008.13
2023-04-08T15:57:25.454Z,1008.1
2023-04-08T16:03:09.920Z,1008.07
2023-04-08T16:08:54.598Z,1008.06
2023-04-08T16:14:38.874Z,1007.96
2023-04-08T16:20:23.146Z,1008.02
2023-04-08T16:26:08.646Z,1007.97
2023-04-08T16:31:55.502Z,1008.04
2023-04-08T16:37:40.514Z,1008.08
2023-04-08T16:43:24.469Z,1008.03
2023-04-08T16:49:09.735Z,1007.96
2023-04-08T16:54:58.608Z,1008.05
2023-04-08T17:00:42.609Z,1008.07
2023-04-08T17:06:26.936Z,1008.01
2023-04-08T17:12:12.958Z,1008.06
2023-04-08T17:17:57.282Z,1008.16
2023-04-08T17:23:41.263Z,1008.14
2023-04-08T17:29:25.502Z,1008.13
2023-04-08T17:35:09.987Z,1008.09
2023-04-08T17:40:53.954Z,1008.07
2023-04-08T17:46:38.005Z,1008.09
2023-04-08T17:52:22.096Z,1008.07
2023-04-08T17:58:06.023Z,1008.03
2023-04-08T18:03:50.482Z,1008.11
2023-04-08T18:09:35.536Z,1008.08
2023-04-08T18:15:19.595Z,1008.11
2023-04-08T18:21:03.594Z,1008.13
2023-04-08T18:26:57.934Z,1008.1
2023-04-08T18:32:47.083Z,1008.13
2023-04-08T18:38:31.334Z,1008.19
2023-04-08T18:44:15.258Z,1008.23
2023-04-08T18:49:59.234Z,1008.22
2023-04-08T18:55:43.325Z,1008.29
2023-04-08T19:01:27.438Z,1008.34
2023-04-08T19:07:11.642Z,1008.35
2023-04-08T19:12:56.653Z,1008.28
2023-04-08T19:18:40.670Z,1008.31
2023-04-08T19:24:24.636Z,1008.36
2023-04-08T19:30:09.654Z,1008.39
2023-04-08T19:35:53.922Z,1008.42
2023-04-08T19:41:38.297Z,1008.52
2023-04-08T19:47:22.384Z,1008.5
2023-04-08T19:53:06.520Z,1008.48
2023-04-08T19:58:51.024Z,1008.49
2023-04-08T20:04:36.047Z,1008.54
2023-04-08T20:10:21.138Z,1008.57
2023-04-08T20:16:05.270Z,1008.61
2023-04-08T20:21:49.264Z,1008.67
2023-04-08T20:27:33.282Z,1008.7
2023-04-08T20:33:17.259Z,1008.68
2023-04-08T20:39:02.252Z,1008.67
2023-04-08T20:44:46.230Z,1008.66
2023-04-08T20:50:30.235Z,1008.65
2023-04-08T20:56:14.320Z,1008.61
2023-04-08T21:01:59.082Z,1008.59
2023-04-08T21:07:43.573Z,1008.59
2023-04-08T21:13:27.777Z,1008.63
2023-04-08T21:19:11.847Z,1008.56
2023-04-08T21:24:55.920Z,1008.53
2023-04-08T21:30:39.983Z,1008.57
2023-04-08T21:36:23.863Z,1008.53
2023-04-08T21:42:08.982Z,1008.46
2023-04-08T21:47:53.158Z,1008.54
2023-04-08T21:53:38.124Z,1008.49
2023-04-08T21:59:24.182Z,1008.54
2023-04-08T22:05:08.997Z,1008.5
2023-04-08T22:10:53.039Z,1008.52
2023-04-08T22:16:37.341Z,1008.53
2023-04-08T22:22:21.573Z,1008.53
2023-04-08T22:28:05.570Z,1008.54
2023-04-08T22:33:49.569Z,1008.5
2023-04-08T22:39:34.419Z,1008.53
2023-04-08T22:45:18.546Z,1008.47
2023-04-08T22:51:02.624Z,1008.42
2023-04-08T22:56:46.762Z,1008.43
2023-04-08T23:02:31.022Z,1008.45
2023-04-08T23:08:15.339Z,1008.41
2023-04-08T23:13:59.240Z,1008.3
2023-04-08T23:19:43.811Z,1008.32
2023-04-08T23:25:28.665Z,1008.32
2023-04-08T23:31:12.893Z,1008.31
2023-04-08T23:36:57.143Z,1008.29
2023-04-08T23:42:41.187Z,1008.23
2023-04-08T23:48:25.203Z,1008.22
2023-04-08T23:54:09.071Z,1008.25
2023-04-08T23:59:53.053Z,1008.28
